createdAt,value
2018-06-19T00:00:33.400Z,5.77
2018-06-19T00:03:03.796Z,4.37
2018-06-19T00:05:34.543Z,5.40
2018-06-19T00:08:06.424Z,6.63
2018-06-19T00:10:37.653Z,6.90
2018-06-19T00:13:06.595Z,10.63
2018-06-19T00:15:41.094Z,10.47
2018-06-19T00:18:20.863Z,10.43
2018-06-19T00:20:51.719Z,12.60
2018-06-19T00:23:23.307Z,18.60
2018-06-19T00:25:54.211Z,13.53
2018-06-19T00:28:23.464Z,11.63
2018-06-19T00:30:53.466Z,12.43
2018-06-19T00:33:22.420Z,12.67
2018-06-19T00:35:54.336Z,9.07
2018-06-19T00:38:25.736Z,7.90
2018-06-19T00:40:56.003Z,4.57
2018-06-19T00:43:26.368Z,6.80
2018-06-19T00:45:55.665Z,5.43
2018-06-19T00:48:31.909Z,9.00
2018-06-19T00:51:03.844Z,5.83
2018-06-19T00:53:35.608Z,6.57
2018-06-19T00:56:16.232Z,4.33
2018-06-19T00:58:44.762Z,5.07
2018-06-19T01:01:14.365Z,4.67
2018-06-19T01:06:26.519Z,4.20
2018-06-19T01:08:56.679Z,4.50
2018-06-19T01:11:29.459Z,6.30
2018-06-19T01:14:00.476Z,4.10
2018-06-19T01:16:30.863Z,4.07
2018-06-19T01:19:00.103Z,5.33
2018-06-19T01:21:30.224Z,7.60
2018-06-19T01:24:01.140Z,5.00
2018-06-19T01:26:31.255Z,4.70
2018-06-19T01:28:59.843Z,6.03
2018-06-19T01:31:28.702Z,4.50
2018-06-19T01:33:57.406Z,4.87
2018-06-19T01:36:29.167Z,6.80
2018-06-19T01:38:58.490Z,4.67
2018-06-19T01:41:28.624Z,7.63
2018-06-19T01:44:00.020Z,5.97
2018-06-19T01:46:33.231Z,5.23
2018-06-19T01:49:02.350Z,6.47
2018-06-19T01:51:32.658Z,4.70
2018-06-19T01:54:06.178Z,5.40
2018-06-19T01:56:34.762Z,4.73
2018-06-19T01:59:03.306Z,7.50
2018-06-19T02:01:31.839Z,6.53
2018-06-19T02:04:00.661Z,5.10
2018-06-19T02:06:29.226Z,5.80
2018-06-19T02:08:57.779Z,4.80
2018-06-19T02:11:26.996Z,6.00
2018-06-19T02:13:56.182Z,8.47
2018-06-19T02:16:24.724Z,4.90
2018-06-19T02:18:53.231Z,5.33
2018-06-19T02:21:22.082Z,5.50
2018-06-19T02:23:51.225Z,5.70
2018-06-19T02:26:19.757Z,9.10
2018-06-19T02:28:48.308Z,7.23
2018-06-19T02:31:16.795Z,8.83
2018-06-19T02:33:45.475Z,7.10
2018-06-19T02:36:14.212Z,5.27
2018-06-19T02:38:42.957Z,5.17
2018-06-19T02:41:11.573Z,5.43
2018-06-19T02:43:40.189Z,7.40
2018-06-19T02:46:08.735Z,5.50
2018-06-19T02:48:37.239Z,5.23
2018-06-19T02:51:06.082Z,5.73
2018-06-19T02:53:34.712Z,5.80
2018-06-19T02:56:03.235Z,5.60
2018-06-19T02:58:31.831Z,5.67
2018-06-19T03:01:00.379Z,7.37
2018-06-19T03:03:29.091Z,7.53
2018-06-19T03:05:57.812Z,5.13
2018-06-19T03:08:26.400Z,6.90
2018-06-19T03:10:54.956Z,6.07
2018-06-19T03:13:23.752Z,6.67
2018-06-19T03:15:52.304Z,6.63
2018-06-19T03:18:21.219Z,9.13
2018-06-19T03:20:49.520Z,9.03
2018-06-19T03:23:18.316Z,5.80
2018-06-19T03:25:46.904Z,6.27
2018-06-19T03:28:15.681Z,5.60
2018-06-19T03:30:44.195Z,6.87
2018-06-19T03:33:12.753Z,8.27
2018-06-19T03:35:41.404Z,7.03
2018-06-19T03:38:09.931Z,8.73
2018-06-19T03:40:38.853Z,9.03
2018-06-19T03:43:07.423Z,6.33
2018-06-19T03:45:36.792Z,7.00
2018-06-19T03:48:06.107Z,6.40
2018-06-19T03:50:34.931Z,8.80
2018-06-19T03:53:03.507Z,6.50
2018-06-19T03:55:32.050Z,9.93
2018-06-19T03:58:00.747Z,7.47
2018-06-19T04:00:29.562Z,7.13
2018-06-19T04:02:58.095Z,6.70
2018-06-19T04:05:26.640Z,7.27
2018-06-19T04:07:55.585Z,7.40
2018-06-19T04:10:24.343Z,10.47
2018-06-19T04:12:52.939Z,6.53
2018-06-19T04:15:21.759Z,9.53
2018-06-19T04:17:50.904Z,5.87
2018-06-19T04:20:19.976Z,5.03
2018-06-19T04:22:48.484Z,5.70
2018-06-19T04:25:17.037Z,5.90
2018-06-19T04:27:46.055Z,15.70
2018-06-19T04:30:14.591Z,8.03
2018-06-19T04:32:43.418Z,5.27
2018-06-19T04:35:11.968Z,7.23
2018-06-19T04:37:40.621Z,7.97
2018-06-19T04:40:09.391Z,6.03
2018-06-19T04:42:38.019Z,10.77
2018-06-19T04:45:07.025Z,7.47
2018-06-19T04:47:35.304Z,6.53
2018-06-19T04:50:03.932Z,9.10
2018-06-19T04:52:32.999Z,8.03
2018-06-19T04:55:01.869Z,9.90
2018-06-19T04:57:30.458Z,6.83
2018-06-19T04:59:59.644Z,7.20
2018-06-19T05:02:28.172Z,6.03
2018-06-19T05:04:57.175Z,9.53
2018-06-19T05:07:26.121Z,5.80
2018-06-19T05:09:55.277Z,6.47
2018-06-19T05:12:24.359Z,8.13
2018-06-19T05:14:52.980Z,8.80
2018-06-19T05:17:21.586Z,10.60
2018-06-19T05:19:50.475Z,6.57
2018-06-19T05:22:19.289Z,8.03
2018-06-19T05:24:47.783Z,8.50
2018-06-19T05:27:16.440Z,11.73
2018-06-19T05:29:45.059Z,10.90
2018-06-19T05:32:13.684Z,6.20
2018-06-19T05:34:42.434Z,8.00
2018-06-19T05:37:11.056Z,7.80
2018-06-19T05:39:40.047Z,7.03
2018-06-19T05:42:09.323Z,5.10
2018-06-19T05:44:37.927Z,9.00
2018-06-19T05:47:06.840Z,4.63
2018-06-19T05:49:35.730Z,5.43
2018-06-19T05:52:04.996Z,5.37
2018-06-19T05:54:34.023Z,10.17
2018-06-19T05:57:03.001Z,6.73
2018-06-19T05:59:31.969Z,5.90
2018-06-19T06:02:00.580Z,6.27
2018-06-19T06:04:30.594Z,7.97
2018-06-19T06:06:59.360Z,6.23
2018-06-19T06:09:28.142Z,5.53
2018-06-19T06:11:56.919Z,5.73
2018-06-19T06:14:25.538Z,4.07
2018-06-19T06:16:54.999Z,6.80
2018-06-19T06:19:23.925Z,5.80
2018-06-19T06:21:53.203Z,6.30
2018-06-19T06:24:22.578Z,7.73
2018-06-19T06:26:51.376Z,8.67
2018-06-19T06:29:20.186Z,3.97
2018-06-19T06:31:48.525Z,4.67
2018-06-19T06:34:21.401Z,3.70
2018-06-19T06:36:50.097Z,7.10
2018-06-19T06:39:19.883Z,4.90
2018-06-19T06:41:48.887Z,3.87
2018-06-19T06:44:18.488Z,3.63
2018-06-19T06:46:47.369Z,6.13
2018-06-19T06:49:16.721Z,7.00
2018-06-19T06:51:45.344Z,4.93
2018-06-19T06:54:14.121Z,3.70
2018-06-19T06:56:43.102Z,4.37
2018-06-19T06:59:11.693Z,5.27
2018-06-19T07:01:40.407Z,9.17
2018-06-19T07:04:09.083Z,10.13
2018-06-19T07:06:38.503Z,7.07
2018-06-19T07:09:10.433Z,4.93
2018-06-19T07:11:39.984Z,3.17
2018-06-19T07:14:09.321Z,4.87
2018-06-19T07:16:38.417Z,4.33
2018-06-19T07:19:08.219Z,5.13
2018-06-19T07:21:37.121Z,3.90
2018-06-19T07:24:05.675Z,7.10
2018-06-19T07:26:34.848Z,5.90
2018-06-19T07:29:04.697Z,4.20
2018-06-19T07:31:33.357Z,5.97
2018-06-19T07:34:02.120Z,5.37
2018-06-19T07:36:30.880Z,2.87
2018-06-19T07:38:59.908Z,3.20
2018-06-19T07:41:28.689Z,3.33
2018-06-19T07:43:57.504Z,2.77
2018-06-19T07:46:26.440Z,3.50
2018-06-19T07:48:55.280Z,2.83
2018-06-19T07:51:24.106Z,3.90
2018-06-19T07:53:52.961Z,3.77
2018-06-19T07:56:22.172Z,2.13
2018-06-19T07:58:50.890Z,4.87
2018-06-19T08:01:19.455Z,4.33
2018-06-19T08:03:48.315Z,3.77
2018-06-19T08:06:16.904Z,5.67
2018-06-19T08:08:45.543Z,3.27
2018-06-19T08:11:14.119Z,3.10
2018-06-19T08:13:42.708Z,3.70
2018-06-19T08:16:11.890Z,3.10
2018-06-19T08:18:45.831Z,3.23
2018-06-19T08:21:14.434Z,3.43
2018-06-19T08:23:43.378Z,5.30
2018-06-19T08:26:12.325Z,2.50
2018-06-19T08:28:40.935Z,3.90
2018-06-19T08:31:10.194Z,4.43
2018-06-19T08:33:38.952Z,2.80
2018-06-19T08:36:08.711Z,2.53
2018-06-19T08:38:38.352Z,2.87
2018-06-19T08:41:08.555Z,2.20
2018-06-19T08:43:37.759Z,2.33
2018-06-19T08:46:07.373Z,3.33
2018-06-19T08:48:36.197Z,2.40
2018-06-19T08:51:06.215Z,2.77
2018-06-19T08:53:35.102Z,5.03
2018-06-19T08:56:04.400Z,3.23
2018-06-19T08:58:34.528Z,2.63
2018-06-19T09:01:04.405Z,2.40
2018-06-19T09:03:33.080Z,2.10
2018-06-19T09:06:01.803Z,2.87
2018-06-19T09:08:30.988Z,4.00
2018-06-19T09:11:01.084Z,2.13
2018-06-19T09:13:30.097Z,2.27
2018-06-19T09:15:59.252Z,5.63
2018-06-19T09:18:28.379Z,3.23
2018-06-19T09:20:57.170Z,2.30
2018-06-19T09:23:25.875Z,3.63
2018-06-19T09:25:54.761Z,3.53
2018-06-19T09:28:24.711Z,2.90
2018-06-19T09:30:53.623Z,3.43
2018-06-19T09:33:23.608Z,3.93
2018-06-19T09:35:52.252Z,2.23
2018-06-19T09:38:20.923Z,2.20
2018-06-19T09:40:49.497Z,7.27
2018-06-19T09:43:18.474Z,4.40
2018-06-19T09:45:47.501Z,3.43
2018-06-19T09:48:16.255Z,2.33
2018-06-19T09:50:45.240Z,3.17
2018-06-19T09:53:13.949Z,2.77
2018-06-19T09:55:42.894Z,2.47
2018-06-19T09:58:11.964Z,2.63
2018-06-19T10:00:40.760Z,2.70
2018-06-19T10:03:09.549Z,5.17
2018-06-19T10:05:38.288Z,2.00
2018-06-19T10:08:06.905Z,2.00
2018-06-19T10:10:35.763Z,4.97
2018-06-19T10:13:04.657Z,1.60
2018-06-19T10:15:33.496Z,6.63
2018-06-19T10:18:02.204Z,2.90
2018-06-19T10:20:30.865Z,2.20
2018-06-19T10:22:59.697Z,2.43
2018-06-19T10:25:28.254Z,2.77
2018-06-19T10:27:56.817Z,3.10
2018-06-19T10:30:25.614Z,5.47
2018-06-19T10:32:54.287Z,4.07
2018-06-19T10:35:23.434Z,2.70
2018-06-19T10:37:52.418Z,2.50
2018-06-19T10:40:21.689Z,2.50
2018-06-19T10:42:50.369Z,2.20
2018-06-19T10:45:18.911Z,4.30
2018-06-19T10:47:48.038Z,1.87
2018-06-19T10:50:17.143Z,1.53
2018-06-19T10:52:46.529Z,2.17
2018-06-19T10:55:15.476Z,2.00
2018-06-19T10:57:45.008Z,1.83
2018-06-19T11:00:14.270Z,2.07
2018-06-19T11:02:43.429Z,1.90
2018-06-19T11:05:12.642Z,4.33
2018-06-19T11:07:41.395Z,2.33
2018-06-19T11:10:10.186Z,2.57
2018-06-19T11:12:39.114Z,1.70
2018-06-19T11:15:08.255Z,3.47
2018-06-19T11:17:37.286Z,3.57
2018-06-19T11:20:07.172Z,3.67
2018-06-19T11:22:36.618Z,3.13
2018-06-19T11:25:05.808Z,3.67
2018-06-19T11:27:34.874Z,5.50
2018-06-19T11:30:03.626Z,1.90
2018-06-19T11:32:32.323Z,2.30
2018-06-19T11:35:01.268Z,5.53
2018-06-19T11:37:29.909Z,2.30
2018-06-19T11:39:58.888Z,1.63
2018-06-19T11:42:27.465Z,4.23
2018-06-19T11:44:56.216Z,1.67
2018-06-19T11:47:25.165Z,1.77
2018-06-19T11:49:53.785Z,2.63
2018-06-19T11:52:22.411Z,1.90
2018-06-19T11:54:51.087Z,1.80
2018-06-19T11:57:19.675Z,3.13
2018-06-19T11:59:53.660Z,1.90
2018-06-19T12:02:22.192Z,1.77
2018-06-19T12:04:50.756Z,1.93
2018-06-19T12:07:20.221Z,3.70
2018-06-19T12:09:48.770Z,1.87
2018-06-19T12:12:17.399Z,1.80
2018-06-19T12:14:46.086Z,3.63
2018-06-19T12:17:15.763Z,3.17
2018-06-19T12:19:45.098Z,1.63
2018-06-19T12:22:13.739Z,4.60
2018-06-19T12:24:42.431Z,1.97
2018-06-19T12:27:11.171Z,2.17
2018-06-19T12:29:40.122Z,3.87
2018-06-19T12:32:08.744Z,1.73
2018-06-19T12:34:37.372Z,1.70
2018-06-19T12:37:06.899Z,3.23
2018-06-19T12:39:35.733Z,3.00
2018-06-19T12:42:04.597Z,2.03
2018-06-19T12:44:33.282Z,1.20
2018-06-19T12:47:01.986Z,1.47
2018-06-19T12:49:41.607Z,1.53
2018-06-19T12:52:21.649Z,1.77
2018-06-19T12:55:29.464Z,1.30
2018-06-19T12:57:58.379Z,1.90
2018-06-19T13:00:27.269Z,2.67
2018-06-19T13:03:07.048Z,1.87
2018-06-19T13:05:46.703Z,1.73
2018-06-19T13:08:15.552Z,1.17
2018-06-19T13:10:44.605Z,1.50
2018-06-19T13:13:26.159Z,2.73
2018-06-19T13:15:55.693Z,2.93
2018-06-19T13:20:42.223Z,1.30
2018-06-19T13:23:11.409Z,2.37
2018-06-19T13:25:40.234Z,1.70
2018-06-19T13:28:09.509Z,2.50
2018-06-19T13:30:49.299Z,2.50
2018-06-19T13:33:18.164Z,3.00
2018-06-19T13:35:46.878Z,1.73
2018-06-19T13:38:16.083Z,1.47
2018-06-19T13:41:08.653Z,2.33
2018-06-19T13:43:48.538Z,1.60
2018-06-19T13:46:17.562Z,1.60
2018-06-19T13:48:46.744Z,1.60
2018-06-19T13:51:15.524Z,1.93
2018-06-19T13:53:44.762Z,1.40
2018-06-19T13:57:42.027Z,1.67
2018-06-19T14:00:15.771Z,4.30
2018-06-19T14:02:44.609Z,1.60
2018-06-19T14:05:14.837Z,1.70
2018-06-19T14:08:03.923Z,4.37
2018-06-19T14:10:43.664Z,2.77
2018-06-19T14:13:12.805Z,1.53
2018-06-19T14:15:45.723Z,1.30
2018-06-19T14:18:15.111Z,4.53
2018-06-19T14:20:45.665Z,1.73
2018-06-19T14:23:15.081Z,3.53
2018-06-19T14:25:43.854Z,2.33
2018-06-19T14:28:12.905Z,2.73
2018-06-19T14:30:41.507Z,1.90
2018-06-19T14:33:11.310Z,1.57
2018-06-19T14:35:41.544Z,1.60
2018-06-19T14:38:10.170Z,1.20
2018-06-19T14:40:39.023Z,1.50
2018-06-19T14:43:07.611Z,1.43
2018-06-19T14:45:36.242Z,4.53
2018-06-19T14:48:04.924Z,1.30
2018-06-19T14:50:33.491Z,1.37
2018-06-19T14:53:02.400Z,1.37
2018-06-19T14:55:31.536Z,2.27
2018-06-19T14:58:00.535Z,3.13
2018-06-19T15:00:29.214Z,2.63
2018-06-19T15:02:57.938Z,4.10
2018-06-19T15:05:26.567Z,2.10
2018-06-19T15:07:55.682Z,1.30
2018-06-19T15:10:24.434Z,3.00
2018-06-19T15:12:53.454Z,2.73
2018-06-19T15:15:22.128Z,2.03
2018-06-19T15:17:50.804Z,1.77
2018-06-19T15:20:19.461Z,1.63
2018-06-19T15:22:48.115Z,4.27
2018-06-19T15:25:17.110Z,1.63
2018-06-19T15:27:45.776Z,1.83
2018-06-19T15:30:14.583Z,1.27
2018-06-19T15:32:43.251Z,3.87
2018-06-19T15:35:12.465Z,1.90
2018-06-19T15:37:41.118Z,3.53
2018-06-19T15:40:09.822Z,3.30
2018-06-19T15:42:38.410Z,1.17
2018-06-19T15:45:07.049Z,3.17
2018-06-19T15:47:35.294Z,2.67
2018-06-19T15:50:03.995Z,1.73
2018-06-19T15:52:32.572Z,1.30
2018-06-19T15:55:01.150Z,1.20
2018-06-19T15:57:29.861Z,3.00
2018-06-19T15:59:58.427Z,1.47
2018-06-19T16:02:27.355Z,2.00
2018-06-19T16:04:55.993Z,1.93
2018-06-19T16:07:24.596Z,2.10
2018-06-19T16:09:53.162Z,2.50
2018-06-19T16:12:21.792Z,1.60
2018-06-19T16:14:50.436Z,1.33
2018-06-19T16:17:18.998Z,1.53
2018-06-19T16:19:47.550Z,1.50
2018-06-19T16:22:16.290Z,1.57
2018-06-19T16:24:44.926Z,1.00
2018-06-19T16:27:13.611Z,2.47
2018-06-19T16:29:42.181Z,1.70
2018-06-19T16:32:11.070Z,4.80
2018-06-19T16:34:40.017Z,2.30
2018-06-19T16:37:09.028Z,1.47
2018-06-19T16:39:37.691Z,2.23
2018-06-19T16:42:06.684Z,1.33
2018-06-19T16:44:35.259Z,2.50
2018-06-19T16:47:03.800Z,1.40
2018-06-19T16:49:32.448Z,2.17
2018-06-19T16:52:01.247Z,1.70
2018-06-19T16:54:29.799Z,2.10
2018-06-19T16:56:58.453Z,2.10
2018-06-19T16:59:27.160Z,1.67
2018-06-19T17:01:55.808Z,1.87
2018-06-19T17:04:24.491Z,1.43
2018-06-19T17:06:53.090Z,1.47
2018-06-19T17:09:21.339Z,2.10
2018-06-19T17:11:50.072Z,2.80
2018-06-19T17:14:18.712Z,2.13
2018-06-19T17:16:47.333Z,3.00
2018-06-19T17:19:15.963Z,5.57
2018-06-19T17:21:44.933Z,1.40
2018-06-19T17:24:13.490Z,1.50
2018-06-19T17:26:42.130Z,1.90
2018-06-19T17:29:10.757Z,1.37
2018-06-19T17:31:39.302Z,2.97
2018-06-19T17:34:08.028Z,3.17
2018-06-19T17:36:36.798Z,4.37
2018-06-19T17:39:08.208Z,1.63
2018-06-19T17:41:37.161Z,2.37
2018-06-19T17:44:05.816Z,1.83
2018-06-19T17:46:34.471Z,1.53
2018-06-19T17:49:03.209Z,3.50
2018-06-19T17:51:31.603Z,1.87
2018-06-19T17:53:59.887Z,3.93
2018-06-19T17:56:28.547Z,3.90
2018-06-19T17:58:57.132Z,2.50
2018-06-19T18:01:25.806Z,2.63
2018-06-19T18:03:54.367Z,2.63
2018-06-19T18:06:22.899Z,1.50
2018-06-19T18:08:51.498Z,1.80
2018-06-19T18:11:20.347Z,2.97
2018-06-19T18:13:48.930Z,2.10
2018-06-19T18:16:18.317Z,2.87
2018-06-19T18:18:47.127Z,3.00
2018-06-19T18:21:15.393Z,2.33
2018-06-19T18:23:44.148Z,6.53
2018-06-19T18:26:12.983Z,1.67
2018-06-19T18:28:41.827Z,2.70
2018-06-19T18:31:11.097Z,4.17
2018-06-19T18:33:40.150Z,3.73
2018-06-19T18:36:09.517Z,4.13
2018-06-19T18:38:38.260Z,4.43
2018-06-19T18:41:07.489Z,4.23
2018-06-19T18:43:36.377Z,2.33
2018-06-19T18:46:07.061Z,2.13
2018-06-19T18:48:35.964Z,2.90
2018-06-19T18:51:04.512Z,3.87
2018-06-19T18:53:33.143Z,3.67
2018-06-19T18:56:01.795Z,1.97
2018-06-19T18:58:30.355Z,1.73
2018-06-19T19:00:58.958Z,2.70
2018-06-19T19:03:27.571Z,2.43
2018-06-19T19:05:56.155Z,2.13
2018-06-19T19:08:25.669Z,2.70
2018-06-19T19:10:56.396Z,2.00
2018-06-19T19:13:26.161Z,3.20
2018-06-19T19:16:00.068Z,1.90
2018-06-19T19:18:34.084Z,5.27
2018-06-19T19:21:03.081Z,2.67
2018-06-19T19:23:31.888Z,3.60
2018-06-19T19:26:00.640Z,2.97
2018-06-19T19:28:34.930Z,6.33
2018-06-19T19:31:03.203Z,2.83
2018-06-19T19:33:31.900Z,5.17
2018-06-19T19:36:00.519Z,2.13
2018-06-19T19:38:34.773Z,2.30
2018-06-19T19:41:03.410Z,2.37
2018-06-19T19:43:32.056Z,2.63
2018-06-19T19:46:00.694Z,3.97
2018-06-19T19:48:34.550Z,2.93
2018-06-19T19:51:03.188Z,2.60
2018-06-19T19:53:31.932Z,3.10
2018-06-19T19:56:05.774Z,2.70
2018-06-19T19:58:39.699Z,6.63
2018-06-19T20:01:08.644Z,2.93
2018-06-19T20:03:37.431Z,5.97
2018-06-19T20:06:05.663Z,3.27
2018-06-19T20:08:34.330Z,2.70
2018-06-19T20:11:03.029Z,2.93
2018-06-19T20:13:31.607Z,3.47
2018-06-19T20:16:00.303Z,4.50
2018-06-19T20:18:28.933Z,5.90
2018-06-19T20:20:57.619Z,4.17
2018-06-19T20:23:26.307Z,4.67
2018-06-19T20:25:55.035Z,3.43
2018-06-19T20:28:24.755Z,5.03
2018-06-19T20:30:53.856Z,2.97
2018-06-19T20:33:23.668Z,3.53
2018-06-19T20:35:53.074Z,2.97
2018-06-19T20:38:23.089Z,3.63
2018-06-19T20:40:53.090Z,3.30
2018-06-19T20:43:22.507Z,2.87
2018-06-19T20:45:51.592Z,3.20
2018-06-19T20:48:21.153Z,2.97
2018-06-19T20:50:50.029Z,2.67
2018-06-19T20:53:19.087Z,2.47
2018-06-19T20:55:48.895Z,2.47
2018-06-19T20:58:18.101Z,7.67
2018-06-19T21:00:46.943Z,2.50
2018-06-19T21:03:15.984Z,2.80
2018-06-19T21:05:44.683Z,2.50
2018-06-19T21:08:13.891Z,2.53
2018-06-19T21:10:43.127Z,3.57
2018-06-19T21:13:11.954Z,2.90
2018-06-19T21:15:40.816Z,4.07
2018-06-19T21:18:09.419Z,5.27
2018-06-19T21:20:38.020Z,7.33
2018-06-19T21:23:06.661Z,6.63
2018-06-19T21:25:35.764Z,7.03
2018-06-19T21:28:04.797Z,9.97
2018-06-19T21:30:33.531Z,8.70
2018-06-19T21:33:02.098Z,7.20
2018-06-19T21:35:31.024Z,13.83
2018-06-19T21:37:59.583Z,9.43
2018-06-19T21:40:28.129Z,6.07
2018-06-19T21:42:56.701Z,7.87
2018-06-19T21:45:25.299Z,5.10
2018-06-19T21:47:53.985Z,6.53
2018-06-19T21:50:22.538Z,5.13
2018-06-19T21:52:51.464Z,3.40
2018-06-19T21:55:20.353Z,3.63
2018-06-19T21:57:48.901Z,4.07
2018-06-19T22:00:18.051Z,4.80
2018-06-19T22:02:46.785Z,8.13
2018-06-19T22:05:15.430Z,5.33
2018-06-19T22:07:44.824Z,5.33
2018-06-19T22:10:14.023Z,4.07
2018-06-19T22:12:42.608Z,3.57
2018-06-19T22:15:11.172Z,3.73
2018-06-19T22:17:39.811Z,3.23
2018-06-19T22:20:08.323Z,3.53
2018-06-19T22:22:37.857Z,4.23
2018-06-19T22:25:06.811Z,6.90
2018-06-19T22:27:35.405Z,5.83
2018-06-19T22:30:04.081Z,9.70
2018-06-19T22:32:32.664Z,4.97
2018-06-19T22:35:01.249Z,9.30
2018-06-19T22:37:30.345Z,5.07
2018-06-19T22:39:59.051Z,5.33
2018-06-19T22:42:27.598Z,3.50
2018-06-19T22:44:56.571Z,2.80
2018-06-19T22:47:25.110Z,3.30
2018-06-19T22:49:54.322Z,5.20
2018-06-19T22:52:23.331Z,2.73
2018-06-19T22:54:52.224Z,2.80
2018-06-19T22:57:20.883Z,3.50
2018-06-19T22:59:49.484Z,6.23
2018-06-19T23:02:18.192Z,4.23
2018-06-19T23:04:46.991Z,7.20
2018-06-19T23:07:15.535Z,4.50
2018-06-19T23:09:44.062Z,4.17
2018-06-19T23:12:12.656Z,4.87
2018-06-19T23:14:41.339Z,3.10
2018-06-19T23:17:10.171Z,3.30
2018-06-19T23:19:39.228Z,2.53
2018-06-19T23:22:08.136Z,3.97
2018-06-19T23:24:36.736Z,2.80
2018-06-19T23:27:05.297Z,2.57
2018-06-19T23:29:33.804Z,3.80
2018-06-19T23:32:02.674Z,3.10
2018-06-19T23:34:31.228Z,3.00
2018-06-19T23:36:59.740Z,3.10
2018-06-19T23:39:28.291Z,5.57
2018-06-19T23:41:56.831Z,3.03
2018-06-19T23:44:25.340Z,3.20
2018-06-19T23:46:54.341Z,3.57
2018-06-19T23:49:22.859Z,3.43
2018-06-19T23:51:51.590Z,4.73
2018-06-19T23:54:20.515Z,3.47
2018-06-19T23:56:49.101Z,4.90
2018-06-19T23:59:17.724Z,4.07
